Ana Sayfa
METAR-TAF:

METAR-TAF

Havaalanları :

Malé, Maldivler

Enlem: 04-12N, Boylam: 073-32E, yükseklik: 2 m

Güncel hava durumu gözlemi

Rapor saat 20:00 UTC de 51 dakika önce yapıldı.
Rüzgar doğudan 15 kt
Sıcaklık 28°C
Nem 89%
Basınç 1010 hPa
Görüş mesafesi: 9000 m
1800 ft yükseklikte az bulutlu
27000 ft yükseklikte parçalı bulutlu

METAR: VRMM 232000Z 08015KT 9000 FEW018 SCT270 28/26 Q1010 NOSIG

Saat: 01:51 (20:51 UTC)

Tahmin

Rapor saat 17:00 UTC de 3 saat ve 51 dakika önce yapıldı.
Ayın 23'si saat 18 UTC'den ayın 24'si saat 24 UTC'ye kadar geçerli Tahmin
Rüzgar doğu/kuzeydoğudan 18 kt
Görüş mesafesi: 9000 m
1800 ft yükseklikte az bulutlu, Yükselen kümülüs.
Geçici
ayın 23'si saat 18 UTC'den ayın 23'si saat 24 UTC'ye kadar
Görüş mesafesi: 5000 m
1700 ft yükseklikte az bulutlu, Kümülonimbus.
gök gürültülü fırtına, hafif yağmur

TAF: VRMM 231700Z 2318/2424 07018KT 9000 FEW018TCU TEMPO 2318/2324 5000 -TSRA FEW017CB

4.000'den fazla havaalanı için hava durumu gözlemleri ve tahminleri (METAR ve TAF raporları).

Kullanılabilir istasyonlar harita üzerinde sarı ve kırmızı noktalarla gösterilir.

İstasyonun adını görmek için fareyi noktanın üzerinde gezdirin.

Sonrasında hava gözlem ve tahminlerini görmek için tıklayın.

Haritayı değiştirmek için: yaklaştırmak için siyah artı işaretli yeşil düğmeye ve uzaklaştırmak için de eksi işaretli düğmeye hızla tıklayın; bitişik haritalar için yeşil okları kullanın.


METAR-TAF: